Time;durP1;ratioP1;P1;durP2;ratioP2;P2;SDS_P1;SDS_P2;PMS_P1;PMS_P2;Temp;Humidity;BMP_temperature;BMP_pressure;BME280_temperature;BME280_humidity;BME280_pressure;Samples;Min_cycle;Max_cycle;Signal;HPM_P1;HPM_P2
2023/12/22 00:01:16;;;;;;;;;;;5.20;35.60;;;;;;4995867;28;20323;-82
2023/12/22 00:06:55;;;;;;;;;;;5.40;35.80;;;;;;4994509;28;19916;-82
2023/12/22 00:09:20;;;;;;;;;;;5.50;35.90;;;;;;4994073;28;19910;-72
2023/12/22 00:11:46;;;;;;;;;;;5.50;33.60;;;;;;5003072;28;19913;-71
2023/12/22 00:14:12;;;;;;;;;;;5.50;30.60;;;;;;5013392;28;19992;-73
2023/12/22 00:16:38;;;;;;;;;;;5.50;35.80;;;;;;4995056;28;19971;-72
2023/12/22 00:19:04;;;;;;;;;;;5.60;24.40;;;;;;4992281;28;19916;-72
2023/12/22 00:21:29;;;;;;;;;;;5.60;24.60;;;;;;4994690;28;20265;-72
2023/12/22 00:30:01;;;;;;;;;;;5.60;32.10;;;;;;4985853;28;19932;-82
2023/12/22 00:38:37;;;;;;;;;;;5.60;36.00;;;;;;4980237;28;19917;-82
2023/12/22 00:50:12;;;;;;;;;;;5.60;36.00;;;;;;4993288;28;19928;-82
2023/12/22 00:55:40;;;;;;;;;;;5.60;36.00;;;;;;4980143;28;19913;-82
2023/12/22 00:58:25;;;;;;;;;;;5.60;36.00;;;;;;5018753;28;19918;-82
2023/12/22 01:10:01;;;;;;;;;;;5.70;36.00;;;;;;4994064;28;19916;-82
2023/12/22 01:15:30;;;;;;;;;;;5.90;36.20;;;;;;5000041;28;20005;-82
2023/12/22 01:33:23;;;;;;;;;;;6.00;32.40;;;;;;5000770;28;20285;-82
2023/12/22 01:38:51;;;;;;;;;;;6.10;28.80;;;;;;4996070;28;19912;-73
2023/12/22 01:41:17;;;;;;;;;;;;;;;;;;4991276;28;19910;-72
2023/12/22 01:43:42;;;;;;;;;;;5.80;20.30;;;;;;4996395;28;19984;-72
2023/12/22 01:46:09;;;;;;;;;;;5.80;14.40;;;;;;4996406;28;19965;-72
2023/12/22 01:48:37;;;;;;;;;;;5.70;14.60;;;;;;4996625;28;19951;-72
2023/12/22 01:51:04;;;;;;;;;;;5.60;17.70;;;;;;4995797;28;19980;-72
2023/12/22 01:53:30;;;;;;;;;;;5.60;9.90;;;;;;5003501;28;20304;-73
2023/12/22 01:55:56;;;;;;;;;;;5.60;7.10;;;;;;5002257;28;19952;-71
2023/12/22 01:58:25;;;;;;;;;;;5.50;2.20;;;;;;4995565;28;19960;-71
2023/12/22 02:00:52;;;;;;;;;;;5.50;2.80;;;;;;5002990;28;19960;-71
2023/12/22 02:03:18;;;;;;;;;;;5.40;5.50;;;;;;5005078;28;20376;-72
2023/12/22 02:05:46;;;;;;;;;;;6.80;2.10;;;;;;4996281;28;20056;-71
2023/12/22 02:08:22;;;;;;;;;;;5.30;1.00;;;;;;4996008;28;19917;-78
2023/12/22 02:10:48;;;;;;;;;;;5.30;2.30;;;;;;4995852;28;20350;-71
2023/12/22 02:13:14;;;;;;;;;;;5.30;1.00;;;;;;4995587;28;19910;-71
2023/12/22 02:15:40;;;;;;;;;;;5.20;1.00;;;;;;4992734;28;19927;-72
2023/12/22 02:18:16;;;;;;;;;;;5.10;1.30;;;;;;4995750;28;19910;-72
2023/12/22 02:20:44;;;;;;;;;;;5.00;3.10;;;;;;4998567;28;20357;-71
2023/12/22 02:23:09;;;;;;;;;;;5.00;1.00;;;;;;4995852;28;19995;-72
2023/12/22 02:25:35;;;;;;;;;;;5.00;2.40;;;;;;4998763;28;19956;-72
2023/12/22 02:28:07;;;;;;;;;;;4.90;4.90;;;;;;4995983;28;19932;-72
2023/12/22 02:30:34;;;;;;;;;;;5.00;3.20;;;;;;4991703;28;19912;-72
2023/12/22 02:33:01;;;;;;;;;;;4.90;4.00;;;;;;4995190;28;19917;-72
2023/12/22 02:35:28;;;;;;;;;;;4.90;6.20;;;;;;4995312;28;20377;-72
2023/12/22 02:37:56;;;;;;;;;;;5.00;7.50;;;;;;4995367;28;19912;-72
2023/12/22 02:40:55;;;;;;;;;;;4.90;6.30;;;;;;5007907;28;19909;-82
2023/12/22 02:54:56;;;;;;;;;;;4.90;12.60;;;;;;4995195;28;19920;-72
2023/12/22 02:57:22;;;;;;;;;;;5.00;14.90;;;;;;5004803;28;19917;-72
2023/12/22 02:59:48;;;;;;;;;;;5.10;17.40;;;;;;4997623;28;19940;-72
2023/12/22 03:02:14;;;;;;;;;;;5.20;18.30;;;;;;4994839;28;19906;-72
2023/12/22 03:04:43;;;;;;;;;;;5.20;18.90;;;;;;4995985;28;19921;-72
2023/12/22 03:07:09;;;;;;;;;;;5.20;19.30;;;;;;4995521;28;20308;-71
2023/12/22 03:15:40;;;;;;;;;;;5.30;21.00;;;;;;4992146;28;19912;-81
2023/12/22 03:21:25;;;;;;;;;;;5.30;18.40;;;;;;5004935;28;19916;-81
2023/12/22 03:26:53;;;;;;;;;;;5.40;17.10;;;;;;4993393;28;19937;-81
2023/12/22 03:38:28;;;;;;;;;;;5.40;24.90;;;;;;5006162;28;19912;-82
2023/12/22 03:40:54;;;;;;;;;;;5.30;23.90;;;;;;4988188;28;19906;-72
2023/12/22 03:43:19;;;;;;;;;;;5.20;35.20;;;;;;4995391;28;19916;-72
2023/12/22 03:45:45;;;;;;;;;;;5.20;35.60;;;;;;4993391;28;19920;-72
2023/12/22 03:48:11;;;;;;;;;;;;;;;;;;4993638;28;19997;-72
2023/12/22 03:50:37;;;;;;;;;;;5.10;35.50;;;;;;4994109;28;19917;-72
2023/12/22 03:53:03;;;;;;;;;;;5.10;35.50;;;;;;4994393;28;19906;-72
2023/12/22 03:58:49;;;;;;;;;;;;;;;;;;4994047;28;19917;-82
2023/12/22 04:04:18;;;;;;;;;;;5.30;35.70;;;;;;5013435;28;20475;-81
2023/12/22 04:09:46;;;;;;;;;;;5.30;35.70;;;;;;5008774;28;19978;-81
2023/12/22 04:12:12;;;;;;;;;;;5.20;35.60;;;;;;4994717;28;19909;-82
2023/12/22 04:14:49;;;;;;;;;;;5.20;35.60;;;;;;4994793;28;20320;-81
2023/12/22 04:17:15;;;;;;;;;;;5.20;35.70;;;;;;4997835;28;19906;-81
2023/12/22 04:19:40;;;;;;;;;;;5.10;35.50;;;;;;4995898;28;19913;-81
2023/12/22 04:22:19;;;;;;;;;;;5.20;35.60;;;;;;4998178;28;20026;-82
2023/12/22 04:24:44;;;;;;;;;;;5.10;35.50;;;;;;5010862;28;19936;-72
2023/12/22 04:27:13;;;;;;;;;;;5.10;35.60;;;;;;4987156;28;19910;-72
2023/12/22 04:29:40;;;;;;;;;;;5.10;35.60;;;;;;4992368;28;20250;-72
2023/12/22 04:32:06;;;;;;;;;;;5.20;35.60;;;;;;4997461;28;19917;-72
2023/12/22 04:34:32;;;;;;;;;;;5.20;35.60;;;;;;4997380;28;19944;-72
2023/12/22 04:36:57;;;;;;;;;;;5.30;35.70;;;;;;5006055;28;19909;-72
2023/12/22 04:39:25;;;;;;;;;;;5.40;35.80;;;;;;4997802;28;19914;-73
2023/12/22 04:41:55;;;;;;;;;;;5.50;35.90;;;;;;4991955;28;19918;-73
2023/12/22 04:44:25;;;;;;;;;;;5.50;35.90;;;;;;4991890;28;19965;-72
2023/12/22 04:46:51;;;;;;;;;;;5.60;36.00;;;;;;4997358;28;19917;-71
2023/12/22 04:49:16;;;;;;;;;;;5.70;36.00;;;;;;4997403;28;19918;-70
2023/12/22 04:51:42;;;;;;;;;;;5.80;24.10;;;;;;4995320;28;19914;-71
2023/12/22 04:54:13;;;;;;;;;;;6.00;14.20;;;;;;4996999;28;19940;-71
2023/12/22 04:56:39;;;;;;;;;;;6.10;9.50;;;;;;4997417;28;19933;-72
2023/12/22 04:59:05;;;;;;;;;;;6.20;5.40;;;;;;4996853;28;19909;-72
2023/12/22 05:01:30;;;;;;;;;;;6.20;4.90;;;;;;5001324;28;20494;-72
2023/12/22 05:03:56;;;;;;;;;;;6.30;1.10;;;;;;4999282;28;19913;-71
2023/12/22 05:06:21;;;;;;;;;;;6.30;1.00;;;;;;4996900;28;19917;-71
2023/12/22 05:08:47;;;;;;;;;;;6.40;1.00;;;;;;5007029;28;20381;-70
2023/12/22 05:11:13;;;;;;;;;;;6.40;1.00;;;;;;4997116;28;19909;-70
2023/12/22 05:13:40;;;;;;;;;;;6.40;1.00;;;;;;4996865;28;20016;-70
2023/12/22 05:16:05;;;;;;;;;;;6.50;1.00;;;;;;4994268;28;20285;-71
2023/12/22 05:18:31;;;;;;;;;;;6.50;1.00;;;;;;4996181;28;19913;-69
2023/12/22 05:20:57;;;;;;;;;;;6.50;1.00;;;;;;4995320;28;19917;-70
2023/12/22 05:23:23;;;;;;;;;;;6.50;1.00;;;;;;4996012;28;19964;-74
2023/12/22 05:25:49;;;;;;;;;;;6.40;1.00;;;;;;4995965;28;19917;-73
2023/12/22 05:28:22;;;;;;;;;;;6.40;1.00;;;;;;4996632;28;20243;-72
2023/12/22 05:30:49;;;;;;;;;;;;;;;;;;4991952;28;19914;-72
2023/12/22 05:36:36;;;;;;;;;;;;;;;;;;4995880;28;19924;-81
2023/12/22 05:45:10;;;;;;;;;;;6.20;1.00;;;;;;4980033;28;19925;-82
2023/12/22 05:50:39;;;;;;;;;;;6.10;5.10;;;;;;4977296;28;19917;-83
2023/12/22 05:53:28;;;;;;;;;;;6.10;6.60;;;;;;4976677;28;20001;-84
2023/12/22 05:55:54;;;;;;;;;;;;;;;;;;4977473;28;19925;-81
2023/12/22 06:04:26;;;;;;;;;;;5.90;16.40;;;;;;4996100;28;20013;-81
2023/12/22 06:09:54;;;;;;;;;;;5.70;17.20;;;;;;4999754;28;20009;-80
2023/12/22 06:15:04;;;;;;;;;;;;;;;;;;4989384;28;19921;-80
2023/12/22 06:17:55;;;;;;;;;;;5.90;3.10;;;;;;5010619;28;19918;-80
2023/12/22 06:23:23;;;;;;;;;;;6.00;1.00;;;;;;4997214;28;19916;-80
2023/12/22 06:26:02;;;;;;;;;;;6.00;1.00;;;;;;4997942;28;19914;-80
2023/12/22 06:28:39;;;;;;;;;;;6.10;1.00;;;;;;4995664;28;20305;-77
2023/12/22 06:33:50;;;;;;;;;;;6.20;1.00;;;;;;5002264;28;19921;-79
2023/12/22 06:39:55;;;;;;;;;;;6.10;1.00;;;;;;4994605;28;19925;-86
2023/12/22 06:45:43;;;;;;;;;;;6.20;1.00;;;;;;4994705;28;19925;-81
2023/12/22 06:48:26;;;;;;;;;;;6.30;1.00;;;;;;4994159;28;19920;-80
2023/12/22 06:57:01;;;;;;;;;;;6.60;1.00;;;;;;5000541;28;20003;-73
2023/12/22 06:59:31;;;;;;;;;;;6.70;1.00;;;;;;4995267;28;20004;-75
2023/12/22 07:01:57;;;;;;;;;;;;;;;;;;4991267;28;20015;-73
2023/12/22 07:04:41;;;;;;;;;;;6.90;1.00;;;;;;4995196;28;20081;-74
2023/12/22 07:07:13;;;;;;;;;;;;;;;;;;4987981;28;19917;-74
2023/12/22 07:09:55;;;;;;;;;;;7.00;1.00;;;;;;4996014;28;19914;-75
2023/12/22 07:15:08;;;;;;;;;;;7.10;1.00;;;;;;4994567;28;20013;-83
2023/12/22 07:23:43;;;;;;;;;;;7.10;1.00;;;;;;4994997;28;19932;-83
2023/12/22 07:29:12;;;;;;;;;;;7.20;1.00;;;;;;5002423;28;19916;-83
2023/12/22 07:34:41;;;;;;;;;;;;;;;;;;4979402;28;20360;-82
2023/12/22 07:37:08;;;;;;;;;;;7.40;1.00;;;;;;5006597;28;20280;-82
2023/12/22 07:42:37;;;;;;;;;;;;;;;;;;4998175;28;19965;-77
2023/12/22 07:45:04;;;;;;;;;;;7.30;1.00;;;;;;4996308;28;19972;-75
2023/12/22 07:47:31;;;;;;;;;;;;;;;;;;5001948;28;19914;-76
2023/12/22 07:50:01;;;;;;;;;;;7.20;1.00;;;;;;4997852;28;19917;-75
2023/12/22 07:52:38;;;;;;;;;;;;;;;;;;4996058;28;19920;-75
2023/12/22 07:55:05;;;;;;;;;;;7.10;1.00;;;;;;4988948;28;19984;-77
2023/12/22 07:58:01;;;;;;;;;;;7.10;1.00;;;;;;5002230;28;19918;-76
2023/12/22 08:00:27;;;;;;;;;;;;;;;;;;4991292;28;20124;-79
2023/12/22 08:02:54;;;;;;;;;;;;;;;;;;5008160;28;20004;-74
2023/12/22 08:05:19;;;;;;;;;;;7.40;1.00;;;;;;5002743;28;19927;-72
2023/12/22 08:07:45;;;;;;;;;;;7.30;1.00;;;;;;5000226;28;20348;-73
2023/12/22 08:10:11;;;;;;;;;;;;;;;;;;4995311;28;19914;-73
2023/12/22 08:12:37;;;;;;;;;;;7.40;1.00;;;;;;4997111;28;19925;-73
2023/12/22 08:15:03;;;;;;;;;;;;;;;;;;4998749;28;19911;-73
2023/12/22 08:17:29;;;;;;;;;;;;;;;;;;4993396;28;19918;-74
2023/12/22 08:19:56;;;;;;;;;;;7.40;1.00;;;;;;4997719;28;20325;-73
2023/12/22 08:22:31;;;;;;;;;;;;;;;;;;4999757;28;19914;-73
2023/12/22 08:25:01;;;;;;;;;;;;;;;;;;4997326;28;19925;-73
2023/12/22 08:27:27;;;;;;;;;;;7.80;1.00;;;;;;4998340;28;19925;-74
2023/12/22 08:29:52;;;;;;;;;;;7.80;1.00;;;;;;4997457;28;19910;-73
2023/12/22 08:32:19;;;;;;;;;;;7.90;1.00;;;;;;4994236;28;20296;-73
2023/12/22 08:34:49;;;;;;;;;;;7.90;1.00;;;;;;4990525;28;20090;-73
2023/12/22 08:37:15;;;;;;;;;;;;;;;;;;4992914;28;20009;-73
2023/12/22 08:39:41;;;;;;;;;;;;;;;;;;5012883;28;19996;-71
2023/12/22 08:42:07;;;;;;;;;;;;;;;;;;4997953;28;19917;-72
2023/12/22 08:44:33;;;;;;;;;;;7.70;1.00;;;;;;4999555;28;19918;-72
2023/12/22 08:46:59;;;;;;;;;;;7.70;1.00;;;;;;4998732;28;19921;-72
2023/12/22 08:49:24;;;;;;;;;;;7.60;1.00;;;;;;4990491;28;19982;-72
2023/12/22 08:51:50;;;;;;;;;;;7.70;1.00;;;;;;4998556;28;20346;-72
2023/12/22 08:54:16;;;;;;;;;;;;;;;;;;4997015;28;19918;-71
2023/12/22 08:56:42;;;;;;;;;;;;;;;;;;4996787;28;19920;-72
2023/12/22 08:59:08;;;;;;;;;;;7.60;1.00;;;;;;4988560;28;19917;-82
2023/12/22 09:10:25;;;;;;;;;;;7.40;1.00;;;;;;4992418;28;19956;-80
2023/12/22 09:18:44;;;;;;;;;;;7.10;1.00;;;;;;4983639;28;19917;-80
2023/12/22 09:24:13;;;;;;;;;;;7.00;1.00;;;;;;4984050;28;19940;-81
2023/12/22 09:29:26;;;;;;;;;;;7.00;1.00;;;;;;4997062;28;19921;-73
2023/12/22 09:31:52;;;;;;;;;;;;;;;;;;4996293;28;20320;-73
2023/12/22 09:34:18;;;;;;;;;;;;;;;;;;4996677;28;19933;-73
2023/12/22 09:36:44;;;;;;;;;;;7.00;1.00;;;;;;4984273;28;19914;-73
2023/12/22 09:39:16;;;;;;;;;;;;;;;;;;5008413;28;19909;-73
2023/12/22 09:41:44;;;;;;;;;;;7.10;1.00;;;;;;4996180;28;19946;-73
2023/12/22 09:44:11;;;;;;;;;;;7.20;1.00;;;;;;5001921;28;19917;-73
2023/12/22 09:46:37;;;;;;;;;;;;;;;;;;5000997;28;19914;-73
2023/12/22 09:49:03;;;;;;;;;;;;;;;;;;4996158;28;19968;-73
2023/12/22 09:51:29;;;;;;;;;;;;;;;;;;4997490;28;19913;-73
2023/12/22 09:53:56;;;;;;;;;;;7.30;1.00;;;;;;4996688;28;20347;-73
2023/12/22 09:56:22;;;;;;;;;;;;;;;;;;4995668;28;19961;-73
2023/12/22 09:59:02;;;;;;;;;;;7.30;1.00;;;;;;4988660;28;19926;-81
2023/12/22 10:02:02;;;;;;;;;;;7.40;1.00;;;;;;4995188;28;19918;-81
2023/12/22 10:07:33;;;;;;;;;;;7.50;1.00;;;;;;4986519;28;20396;-81
2023/12/22 10:10:03;;;;;;;;;;;7.50;1.00;;;;;;4989494;28;19975;-80
2023/12/22 10:12:33;;;;;;;;;;;7.50;1.00;;;;;;4988227;28;19909;-80
2023/12/22 10:15:03;;;;;;;;;;;7.50;1.00;;;;;;4989844;28;19910;-80
2023/12/22 10:18:01;;;;;;;;;;;7.50;1.00;;;;;;4977189;28;19957;-80
2023/12/22 10:23:11;;;;;;;;;;;7.50;1.00;;;;;;5007675;28;19964;-81
2023/12/22 10:25:39;;;;;;;;;;;7.50;1.00;;;;;;4982818;28;20289;-81
2023/12/22 10:28:14;;;;;;;;;;;7.50;1.00;;;;;;4988826;28;20005;-73
2023/12/22 10:30:40;;;;;;;;;;;7.70;1.00;;;;;;5007846;28;20273;-73
2023/12/22 10:33:06;;;;;;;;;;;7.70;1.00;;;;;;4993310;28;19917;-73
2023/12/22 10:35:32;;;;;;;;;;;7.80;1.00;;;;;;4996745;28;19961;-73
2023/12/22 10:37:57;;;;;;;;;;;;;;;;;;5001274;28;19913;-73
2023/12/22 10:40:23;;;;;;;;;;;7.80;1.00;;;;;;4995113;28;19913;-73
2023/12/22 10:42:49;;;;;;;;;;;7.80;1.00;;;;;;4995304;28;19968;-73
2023/12/22 10:45:17;;;;;;;;;;;7.80;1.00;;;;;;4993796;28;20381;-73
2023/12/22 10:47:43;;;;;;;;;;;7.90;1.00;;;;;;4995165;28;19914;-73
2023/12/22 10:50:11;;;;;;;;;;;7.90;1.00;;;;;;4994269;28;20369;-73
2023/12/22 10:52:37;;;;;;;;;;;;;;;;;;4995607;28;19917;-73
2023/12/22 10:55:03;;;;;;;;;;;;;;;;;;4995944;28;20285;-73
2023/12/22 10:57:29;;;;;;;;;;;;;;;;;;4986889;28;20004;-73
2023/12/22 10:59:56;;;;;;;;;;;7.90;1.00;;;;;;4987524;28;20432;-74
2023/12/22 11:02:22;;;;;;;;;;;8.00;1.00;;;;;;4996433;28;19913;-73
2023/12/22 11:04:51;;;;;;;;;;;8.00;1.00;;;;;;4994235;28;19926;-73
2023/12/22 11:07:17;;;;;;;;;;;;;;;;;;4994636;28;19989;-73
2023/12/22 11:09:44;;;;;;;;;;;7.90;1.00;;;;;;4994605;28;19944;-74
2023/12/22 11:12:10;;;;;;;;;;;8.10;1.00;;;;;;4994656;28;19910;-73
2023/12/22 11:14:36;;;;;;;;;;;;;;;;;;4994935;28;19960;-73
2023/12/22 11:17:02;;;;;;;;;;;;;;;;;;4994755;28;19957;-73
2023/12/22 11:19:30;;;;;;;;;;;8.00;1.00;;;;;;4987873;28;20346;-74
2023/12/22 11:22:01;;;;;;;;;;;;;;;;;;4985397;28;19913;-73
2023/12/22 11:24:28;;;;;;;;;;;8.10;1.00;;;;;;4989379;28;19921;-73
2023/12/22 11:26:55;;;;;;;;;;;;;;;;;;4988069;28;19909;-73
2023/12/22 11:29:22;;;;;;;;;;;8.20;1.00;;;;;;5002286;28;19910;-74
2023/12/22 11:31:49;;;;;;;;;;;8.20;1.00;;;;;;4988680;28;19996;-73
2023/12/22 11:34:17;;;;;;;;;;;8.20;1.00;;;;;;4992496;28;19921;-74
2023/12/22 11:36:45;;;;;;;;;;;8.30;1.00;;;;;;4992855;28;19914;-74
2023/12/22 11:39:20;;;;;;;;;;;8.40;1.00;;;;;;4991863;28;19914;-73
2023/12/22 11:41:47;;;;;;;;;;;8.40;1.00;;;;;;4997839;28;19936;-73
2023/12/22 11:44:13;;;;;;;;;;;;;;;;;;5007920;28;19968;-81
2023/12/22 11:46:38;;;;;;;;;;;8.60;1.00;;;;;;4996638;28;20314;-81
2023/12/22 11:49:32;;;;;;;;;;;8.70;1.00;;;;;;4994722;28;19910;-79
2023/12/22 11:52:09;;;;;;;;;;;8.70;1.00;;;;;;4997121;28;19953;-81
2023/12/22 11:55:02;;;;;;;;;;;8.70;1.00;;;;;;5011602;28;19917;-81
2023/12/22 11:57:29;;;;;;;;;;;8.70;1.00;;;;;;4975079;28;20296;-81
2023/12/22 11:59:56;;;;;;;;;;;8.70;1.00;;;;;;4991566;28;19917;-73
2023/12/22 12:02:22;;;;;;;;;;;8.70;1.00;;;;;;5003644;28;20313;-73
2023/12/22 12:04:47;;;;;;;;;;;8.60;1.00;;;;;;4994604;28;19922;-73
2023/12/22 12:07:32;;;;;;;;;;;8.70;1.00;;;;;;4996434;28;19910;-73
2023/12/22 12:10:02;;;;;;;;;;;8.60;1.00;;;;;;4995455;28;19953;-74
2023/12/22 12:12:27;;;;;;;;;;;8.70;1.00;;;;;;4994515;28;19964;-73
2023/12/22 12:14:57;;;;;;;;;;;8.60;1.00;;;;;;4995934;28;19914;-81
2023/12/22 12:17:23;;;;;;;;;;;8.60;1.00;;;;;;5013078;28;19912;-81
2023/12/22 12:20:14;;;;;;;;;;;8.70;1.00;;;;;;5005473;28;19971;-82
2023/12/22 12:23:01;;;;;;;;;;;8.70;1.00;;;;;;4993690;28;19914;-82
2023/12/22 12:25:32;;;;;;;;;;;8.70;1.00;;;;;;4974989;28;20025;-83
2023/12/22 12:28:02;;;;;;;;;;;8.70;1.00;;;;;;5005251;28;20410;-82
2023/12/22 12:30:32;;;;;;;;;;;8.70;1.00;;;;;;4991177;28;20350;-73
2023/12/22 12:33:07;;;;;;;;;;;8.80;1.00;;;;;;4992331;28;20413;-73
2023/12/22 12:35:33;;;;;;;;;;;8.70;1.00;;;;;;4984447;28;19984;-73
2023/12/22 12:37:59;;;;;;;;;;;8.80;1.00;;;;;;4996681;28;20377;-73
2023/12/22 12:40:29;;;;;;;;;;;8.70;1.00;;;;;;4997000;28;19918;-74
2023/12/22 12:42:58;;;;;;;;;;;8.70;1.00;;;;;;5003505;28;19963;-74
2023/12/22 12:45:24;;;;;;;;;;;8.80;1.00;;;;;;4999764;28;19924;-73
2023/12/22 12:47:59;;;;;;;;;;;8.70;1.00;;;;;;4997441;28;19914;-73
2023/12/22 12:50:26;;;;;;;;;;;8.80;1.00;;;;;;4984850;28;19917;-73
2023/12/22 12:52:52;;;;;;;;;;;8.70;1.00;;;;;;5005886;28;19937;-73
2023/12/22 12:55:18;;;;;;;;;;;8.80;1.00;;;;;;4997275;28;20369;-73
2023/12/22 12:57:44;;;;;;;;;;;8.70;1.00;;;;;;4984216;28;19957;-74
2023/12/22 13:00:32;;;;;;;;;;;8.70;1.00;;;;;;4997675;28;20018;-82
2023/12/22 13:03:32;;;;;;;;;;;8.70;1.00;;;;;;4998362;28;20366;-82
2023/12/22 13:06:32;;;;;;;;;;;8.70;5.40;;;;;;4997722;28;19957;-83
2023/12/22 13:09:02;;;;;;;;;;;8.80;8.60;;;;;;4995529;28;19922;-82
2023/12/22 13:11:32;;;;;;;;;;;8.70;13.00;;;;;;4996697;28;19924;-82
2023/12/22 13:14:02;;;;;;;;;;;8.70;22.30;;;;;;5015596;28;20015;-81
2023/12/22 13:16:32;;;;;;;;;;;8.70;28.90;;;;;;5012027;28;20373;-82
2023/12/22 13:19:02;;;;;;;;;;;8.70;38.60;;;;;;4998591;28;19918;-82
2023/12/22 13:21:32;;;;;;;;;;;8.60;38.50;;;;;;4979290;28;20012;-82
2023/12/22 13:24:32;;;;;;;;;;;8.70;38.60;;;;;;4995225;28;19972;-79
2023/12/22 13:30:02;;;;;;;;;;;8.70;38.60;;;;;;5009636;28;19928;-80
2023/12/22 13:32:32;;;;;;;;;;;8.70;38.50;;;;;;4982002;28;20385;-80
2023/12/22 13:34:57;;;;;;;;;;;8.70;38.60;;;;;;5010696;28;19967;-80
2023/12/22 13:37:32;;;;;;;;;;;8.70;38.50;;;;;;4999117;28;19909;-80
2023/12/22 13:40:06;;;;;;;;;;;8.80;38.60;;;;;;4998985;28;19957;-80
2023/12/22 13:45:18;;;;;;;;;;;8.70;38.60;;;;;;4994182;28;20392;-73
2023/12/22 13:47:46;;;;;;;;;;;8.80;38.60;;;;;;4997138;28;19922;-73
2023/12/22 13:50:15;;;;;;;;;;;8.80;38.60;;;;;;4996630;28;19914;-72
2023/12/22 13:52:43;;;;;;;;;;;8.80;38.60;;;;;;4993400;28;19910;-73
2023/12/22 13:55:14;;;;;;;;;;;;;;;;;;4999465;28;20280;-72
2023/12/22 13:57:40;;;;;;;;;;;;;;;;;;4995154;28;20250;-73
2023/12/22 14:00:18;;;;;;;;;;;8.90;38.70;;;;;;4989163;28;19918;-73
2023/12/22 14:02:44;;;;;;;;;;;9.00;38.70;;;;;;4992426;28;20308;-73
2023/12/22 14:05:14;;;;;;;;;;;;;;;;;;4996277;28;19918;-73
2023/12/22 14:07:39;;;;;;;;;;;9.00;38.70;;;;;;4993360;28;19929;-73
2023/12/22 14:10:05;;;;;;;;;;;9.00;38.80;;;;;;4996263;28;19913;-73
2023/12/22 14:12:31;;;;;;;;;;;9.10;38.90;;;;;;4995465;28;19972;-73
2023/12/22 14:15:02;;;;;;;;;;;;;;;;;;4995846;28;19929;-73
2023/12/22 14:17:32;;;;;;;;;;;;;;;;;;4997149;28;19918;-73
2023/12/22 14:19:58;;;;;;;;;;;;;;;;;;4995865;28;19928;-72
2023/12/22 14:22:23;;;;;;;;;;;9.20;39.00;;;;;;5001644;28;19997;-72
2023/12/22 14:24:49;;;;;;;;;;;9.30;32.20;;;;;;4995325;28;20056;-72
2023/12/22 14:36:32;;;;;;;;;;;9.30;24.10;;;;;;4995431;28;19960;-82
2023/12/22 14:39:14;;;;;;;;;;;9.20;24.90;;;;;;5006066;28;20323;-82
2023/12/22 14:47:32;;;;;;;;;;;9.20;18.40;;;;;;4995303;28;19987;-81
2023/12/22 14:50:32;;;;;;;;;;;9.30;16.70;;;;;;4989043;28;20000;-87
2023/12/22 14:53:02;;;;;;;;;;;9.30;14.00;;;;;;4978524;28;19925;-83
2023/12/22 14:55:28;;;;;;;;;;;9.30;10.90;;;;;;4977655;28;20355;-83
2023/12/22 14:57:56;;;;;;;;;;;9.40;10.10;;;;;;5006362;28;19956;-84
2023/12/22 15:00:21;;;;;;;;;;;9.40;4.80;;;;;;4978537;28;19918;-83
2023/12/22 15:06:02;;;;;;;;;;;9.50;1.00;;;;;;4993697;28;20268;-86
2023/12/22 15:08:32;;;;;;;;;;;9.50;1.00;;;;;;4977632;28;20384;-85
2023/12/22 15:11:32;;;;;;;;;;;9.60;1.00;;;;;;4986641;28;19914;-85
2023/12/22 15:20:04;;;;;;;;;;;9.70;1.00;;;;;;4995173;28;19960;-91
2023/12/22 15:25:56;;;;;;;;;;;9.80;1.00;;;;;;4992431;28;19960;-91
2023/12/22 15:28:22;;;;;;;;;;;9.70;1.00;;;;;;5008862;28;19972;-76
2023/12/22 15:30:47;;;;;;;;;;;9.80;1.00;;;;;;4993981;28;19956;-74
2023/12/22 15:33:26;;;;;;;;;;;;;;;;;;4994602;28;20281;-80
2023/12/22 15:39:02;;;;;;;;;;;9.90;1.00;;;;;;4994596;28;19921;-84
2023/12/22 15:42:02;;;;;;;;;;;9.80;1.00;;;;;;4994565;28;20317;-82
2023/12/22 15:44:44;;;;;;;;;;;9.80;1.00;;;;;;4986374;28;19921;-82
2023/12/22 15:47:09;;;;;;;;;;;9.90;1.00;;;;;;4998314;28;19918;-75
2023/12/22 15:49:41;;;;;;;;;;;9.90;1.00;;;;;;4975343;28;19910;-74
2023/12/22 15:52:14;;;;;;;;;;;9.90;1.00;;;;;;4993974;28;19918;-74
2023/12/22 15:54:40;;;;;;;;;;;9.90;1.00;;;;;;4999148;28;19918;-75
2023/12/22 15:57:08;;;;;;;;;;;9.90;1.00;;;;;;5004133;28;20304;-74
2023/12/22 15:59:44;;;;;;;;;;;9.80;1.00;;;;;;4985776;28;19968;-75
2023/12/22 16:02:44;;;;;;;;;;;9.80;1.00;;;;;;4990671;28;19921;-81
2023/12/22 16:11:32;;;;;;;;;;;9.80;1.00;;;;;;4991688;28;20334;-81
2023/12/22 16:14:32;;;;;;;;;;;9.80;1.00;;;;;;4998543;28;19914;-82
2023/12/22 16:17:03;;;;;;;;;;;9.70;1.00;;;;;;4998363;28;20003;-75
2023/12/22 16:19:56;;;;;;;;;;;9.70;1.00;;;;;;4985985;28;19910;-75
2023/12/22 16:25:25;;;;;;;;;;;9.80;1.00;;;;;;4999079;28;19921;-74
2023/12/22 16:28:02;;;;;;;;;;;9.90;1.00;;;;;;4998012;28;20261;-74
2023/12/22 16:30:27;;;;;;;;;;;9.90;1.00;;;;;;4997155;28;19921;-75
2023/12/22 16:32:53;;;;;;;;;;;9.90;1.00;;;;;;4994835;28;19922;-74
2023/12/22 16:35:19;;;;;;;;;;;9.90;1.00;;;;;;4997402;28;19925;-75
2023/12/22 16:37:46;;;;;;;;;;;9.90;1.00;;;;;;4999320;28;20266;-75
2023/12/22 16:40:14;;;;;;;;;;;9.90;1.00;;;;;;4998026;28;19965;-75
2023/12/22 16:42:56;;;;;;;;;;;9.90;1.00;;;;;;4997041;28;20004;-75
2023/12/22 16:45:32;;;;;;;;;;;9.90;1.00;;;;;;5002352;28;20008;-75
2023/12/22 16:48:14;;;;;;;;;;;9.90;1.00;;;;;;4998034;28;19926;-82
2023/12/22 16:50:39;;;;;;;;;;;9.90;1.00;;;;;;4982569;28;19937;-82
2023/12/22 16:53:29;;;;;;;;;;;9.80;1.00;;;;;;4997799;28;19910;-83
2023/12/22 16:56:02;;;;;;;;;;;9.80;1.00;;;;;;4998957;28;19968;-82
2023/12/22 16:58:28;;;;;;;;;;;9.70;1.00;;;;;;4996226;28;19918;-80
2023/12/22 17:03:56;;;;;;;;;;;9.70;1.00;;;;;;4990352;28;20428;-74
2023/12/22 17:06:32;;;;;;;;;;;9.70;1.00;;;;;;4997577;28;19917;-75
2023/12/22 17:09:08;;;;;;;;;;;9.70;1.00;;;;;;4992205;28;19914;-75
2023/12/22 17:11:34;;;;;;;;;;;9.70;1.00;;;;;;4998487;28;20009;-75
2023/12/22 17:13:59;;;;;;;;;;;9.60;1.00;;;;;;4997414;28;19952;-75
2023/12/22 17:16:25;;;;;;;;;;;9.50;1.00;;;;;;4994853;28;19910;-74
2023/12/22 17:25:32;;;;;;;;;;;9.60;1.00;;;;;;4986865;28;20021;-82
2023/12/22 17:28:32;;;;;;;;;;;9.60;1.00;;;;;;4991185;28;19926;-82
2023/12/22 17:31:05;;;;;;;;;;;9.60;1.00;;;;;;5011746;28;19914;-82
2023/12/22 17:39:37;;;;;;;;;;;9.70;1.00;;;;;;4990560;28;19961;-80
2023/12/22 17:45:06;;;;;;;;;;;9.60;1.00;;;;;;4997159;28;19965;-86
2023/12/22 17:47:32;;;;;;;;;;;9.70;1.00;;;;;;4990456;28;20278;-75
2023/12/22 17:49:58;;;;;;;;;;;9.60;1.00;;;;;;4980970;28;19913;-75
2023/12/22 17:52:24;;;;;;;;;;;9.60;1.00;;;;;;4992362;28;20372;-75
2023/12/22 17:54:50;;;;;;;;;;;9.70;1.00;;;;;;5009513;28;20013;-75
2023/12/22 17:57:26;;;;;;;;;;;9.70;1.00;;;;;;4996366;28;19932;-76
2023/12/22 17:59:56;;;;;;;;;;;9.70;1.00;;;;;;4987371;28;19917;-75
2023/12/22 18:05:08;;;;;;;;;;;;;;;;;;4997520;28;19968;-76
2023/12/22 18:10:50;;;;;;;;;;;9.80;1.00;;;;;;4995568;28;19921;-75
2023/12/22 18:13:20;;;;;;;;;;;9.80;1.00;;;;;;4995625;28;19921;-77
2023/12/22 18:15:50;;;;;;;;;;;9.70;1.00;;;;;;4995603;28;19921;-76
2023/12/22 18:24:20;;;;;;;;;;;9.70;1.00;;;;;;4988457;28;19918;-82
2023/12/22 18:27:14;;;;;;;;;;;9.70;1.00;;;;;;4999821;28;19918;-77
2023/12/22 18:41:52;;;;;;;;;;;9.50;3.10;;;;;;4977727;28;19964;-76
2023/12/22 18:47:04;;;;;;;;;;;9.40;3.50;;;;;;4992015;28;19988;-76
2023/12/22 18:49:32;;;;;;;;;;;9.40;3.10;;;;;;4978284;28;19972;-77
2023/12/22 18:52:32;;;;;;;;;;;9.40;1.40;;;;;;4993876;28;19940;-76
2023/12/22 19:01:04;;;;;;;;;;;9.60;1.00;;;;;;4975709;28;19926;-83
2023/12/22 19:03:32;;;;;;;;;;;9.60;1.00;;;;;;4993910;28;19910;-83
2023/12/22 19:06:09;;;;;;;;;;;9.60;1.00;;;;;;4995333;28;19918;-79
2023/12/22 19:14:42;;;;;;;;;;;9.60;1.00;;;;;;4982058;28;20380;-78
2023/12/22 19:20:26;;;;;;;;;;;9.50;1.00;;;;;;4989168;28;19984;-82
2023/12/22 19:23:02;;;;;;;;;;;9.50;1.00;;;;;;4976934;28;20362;-83
2023/12/22 19:30:57;;;;;;;;;;;9.40;1.60;;;;;;4994532;28;19964;-80
2023/12/22 19:33:50;;;;;;;;;;;9.40;5.20;;;;;;4994268;28;19918;-80
2023/12/22 19:36:32;;;;;;;;;;;9.40;8.20;;;;;;4994908;28;20374;-80
2023/12/22 19:39:26;;;;;;;;;;;9.40;9.00;;;;;;5006673;28;20003;-80
2023/12/22 19:47:58;;;;;;;;;;;9.30;19.10;;;;;;4996129;28;20388;-80
2023/12/22 19:50:26;;;;;;;;;;;9.20;18.40;;;;;;4989812;28;19914;-74
2023/12/22 19:52:51;;;;;;;;;;;9.30;17.90;;;;;;4996204;28;19914;-74
2023/12/22 19:58:20;;;;;;;;;;;9.20;17.70;;;;;;5005883;28;19920;-80
2023/12/22 20:06:52;;;;;;;;;;;9.20;12.10;;;;;;5003477;28;19921;-80
2023/12/22 20:09:33;;;;;;;;;;;9.20;8.40;;;;;;4997269;28;19914;-80
2023/12/22 20:14:45;;;;;;;;;;;9.40;1.00;;;;;;4993860;28;19916;-79
2023/12/22 20:23:32;;;;;;;;;;;9.40;1.00;;;;;;4992596;28;19917;-79
2023/12/22 20:26:32;;;;;;;;;;;9.40;1.00;;;;;;4992983;28;20420;-79
2023/12/22 20:29:32;;;;;;;;;;;9.40;1.00;;;;;;4993759;28;19918;-79
2023/12/22 20:35:04;;;;;;;;;;;9.50;1.00;;;;;;4982545;28;19918;-73
2023/12/22 20:37:38;;;;;;;;;;;9.60;1.00;;;;;;4976693;28;19922;-74
2023/12/22 20:40:05;;;;;;;;;;;9.50;1.00;;;;;;4994181;28;19949;-74
2023/12/22 20:42:30;;;;;;;;;;;9.40;1.00;;;;;;5007117;28;19961;-74